sensor_id;sensor_type;location;lat;lon;timestamp;P1;durP1;ratioP1;P2;durP2;ratioP2
21386;SDS011;10854;45.922;6.716;2022-10-16T00:01:47;2.50;;;0.93;;
21386;SDS011;10854;45.922;6.716;2022-10-16T00:04:16;2.87;;;1.07;;
21386;SDS011;10854;45.922;6.716;2022-10-16T00:06:46;1.70;;;0.90;;
21386;SDS011;10854;45.922;6.716;2022-10-16T00:09:15;2.13;;;1.20;;
21386;SDS011;10854;45.922;6.716;2022-10-16T00:11:44;2.60;;;1.10;;
21386;SDS011;10854;45.922;6.716;2022-10-16T00:14:13;2.10;;;1.00;;
21386;SDS011;10854;45.922;6.716;2022-10-16T00:16:43;2.23;;;1.13;;
21386;SDS011;10854;45.922;6.716;2022-10-16T00:19:11;3.13;;;1.13;;
21386;SDS011;10854;45.922;6.716;2022-10-16T00:21:40;2.60;;;1.10;;
21386;SDS011;10854;45.922;6.716;2022-10-16T00:24:09;1.33;;;1.13;;
21386;SDS011;10854;45.922;6.716;2022-10-16T00:26:38;2.10;;;1.27;;
21386;SDS011;10854;45.922;6.716;2022-10-16T00:29:08;1.90;;;1.10;;
21386;SDS011;10854;45.922;6.716;2022-10-16T00:31:38;1.33;;;1.00;;
21386;SDS011;10854;45.922;6.716;2022-10-16T00:34:06;2.70;;;1.13;;
21386;SDS011;10854;45.922;6.716;2022-10-16T00:36:35;1.30;;;0.83;;
21386;SDS011;10854;45.922;6.716;2022-10-16T00:39:04;2.10;;;1.00;;
21386;SDS011;10854;45.922;6.716;2022-10-16T00:41:33;0.90;;;0.73;;
21386;SDS011;10854;45.922;6.716;2022-10-16T00:44:03;3.77;;;1.13;;
21386;SDS011;10854;45.922;6.716;2022-10-16T00:46:51;0.80;;;0.80;;
21386;SDS011;10854;45.922;6.716;2022-10-16T00:49:20;1.47;;;0.77;;
21386;SDS011;10854;45.922;6.716;2022-10-16T00:51:50;2.07;;;0.80;;
21386;SDS011;10854;45.922;6.716;2022-10-16T00:54:23;1.10;;;0.90;;
21386;SDS011;10854;45.922;6.716;2022-10-16T00:56:58;3.07;;;0.80;;
21386;SDS011;10854;45.922;6.716;2022-10-16T00:59:35;1.53;;;1.10;;
21386;SDS011;10854;45.922;6.716;2022-10-16T01:02:07;2.10;;;1.00;;
21386;SDS011;10854;45.922;6.716;2022-10-16T01:04:48;3.57;;;0.83;;
21386;SDS011;10854;45.922;6.716;2022-10-16T01:10:20;2.80;;;0.93;;
21386;SDS011;10854;45.922;6.716;2022-10-16T01:18:37;3.33;;;0.80;;
21386;SDS011;10854;45.922;6.716;2022-10-16T01:21:22;0.77;;;0.77;;
21386;SDS011;10854;45.922;6.716;2022-10-16T01:29:40;1.30;;;1.00;;
21386;SDS011;10854;45.922;6.716;2022-10-16T01:32:36;4.53;;;1.00;;
21386;SDS011;10854;45.922;6.716;2022-10-16T01:35:22;2.77;;;0.90;;
21386;SDS011;10854;45.922;6.716;2022-10-16T01:37:57;0.87;;;0.70;;
21386;SDS011;10854;45.922;6.716;2022-10-16T01:40:39;2.57;;;0.90;;
21386;SDS011;10854;45.922;6.716;2022-10-16T01:43:12;1.60;;;1.00;;
21386;SDS011;10854;45.922;6.716;2022-10-16T01:45:48;1.50;;;1.10;;
21386;SDS011;10854;45.922;6.716;2022-10-16T01:48:18;2.53;;;0.73;;
21386;SDS011;10854;45.922;6.716;2022-10-16T01:50:59;1.67;;;0.87;;
21386;SDS011;10854;45.922;6.716;2022-10-16T01:53:33;2.07;;;0.90;;
21386;SDS011;10854;45.922;6.716;2022-10-16T01:56:02;2.13;;;0.80;;
21386;SDS011;10854;45.922;6.716;2022-10-16T01:58:35;2.30;;;1.00;;
21386;SDS011;10854;45.922;6.716;2022-10-16T02:01:10;3.17;;;1.20;;
21386;SDS011;10854;45.922;6.716;2022-10-16T02:03:43;1.77;;;1.00;;
21386;SDS011;10854;45.922;6.716;2022-10-16T02:06:14;3.20;;;0.90;;
21386;SDS011;10854;45.922;6.716;2022-10-16T02:08:43;0.80;;;0.80;;
21386;SDS011;10854;45.922;6.716;2022-10-16T02:11:11;2.53;;;0.83;;
21386;SDS011;10854;45.922;6.716;2022-10-16T02:13:51;1.63;;;0.80;;
21386;SDS011;10854;45.922;6.716;2022-10-16T02:16:46;1.57;;;0.90;;
21386;SDS011;10854;45.922;6.716;2022-10-16T02:19:13;2.13;;;0.90;;
21386;SDS011;10854;45.922;6.716;2022-10-16T02:21:54;0.70;;;0.70;;
21386;SDS011;10854;45.922;6.716;2022-10-16T02:27:20;1.17;;;0.90;;
21386;SDS011;10854;45.922;6.716;2022-10-16T02:33:00;3.10;;;1.07;;
21386;SDS011;10854;45.922;6.716;2022-10-16T02:35:32;1.10;;;0.90;;
21386;SDS011;10854;45.922;6.716;2022-10-16T02:38:02;2.60;;;0.73;;
21386;SDS011;10854;45.922;6.716;2022-10-16T02:40:32;0.90;;;0.70;;
21386;SDS011;10854;45.922;6.716;2022-10-16T02:43:03;0.93;;;0.60;;
21386;SDS011;10854;45.922;6.716;2022-10-16T02:45:33;0.60;;;0.60;;
21386;SDS011;10854;45.922;6.716;2022-10-16T02:48:01;1.53;;;0.57;;
21386;SDS011;10854;45.922;6.716;2022-10-16T02:50:31;1.23;;;0.70;;
21386;SDS011;10854;45.922;6.716;2022-10-16T02:53:00;1.80;;;0.70;;
21386;SDS011;10854;45.922;6.716;2022-10-16T02:55:29;2.03;;;1.13;;
21386;SDS011;10854;45.922;6.716;2022-10-16T02:57:58;3.17;;;0.80;;
21386;SDS011;10854;45.922;6.716;2022-10-16T03:00:26;2.67;;;0.83;;
21386;SDS011;10854;45.922;6.716;2022-10-16T03:02:56;1.10;;;0.80;;
21386;SDS011;10854;45.922;6.716;2022-10-16T03:05:25;4.00;;;1.00;;
21386;SDS011;10854;45.922;6.716;2022-10-16T03:07:54;1.77;;;0.90;;
21386;SDS011;10854;45.922;6.716;2022-10-16T03:10:23;1.30;;;0.70;;
21386;SDS011;10854;45.922;6.716;2022-10-16T03:12:51;2.67;;;1.10;;
21386;SDS011;10854;45.922;6.716;2022-10-16T03:15:19;1.90;;;0.77;;
21386;SDS011;10854;45.922;6.716;2022-10-16T03:17:48;1.17;;;0.77;;
21386;SDS011;10854;45.922;6.716;2022-10-16T03:20:17;2.03;;;0.97;;
21386;SDS011;10854;45.922;6.716;2022-10-16T03:22:46;0.80;;;0.80;;
21386;SDS011;10854;45.922;6.716;2022-10-16T03:25:14;1.97;;;0.80;;
21386;SDS011;10854;45.922;6.716;2022-10-16T03:27:43;3.03;;;0.93;;
21386;SDS011;10854;45.922;6.716;2022-10-16T03:30:11;2.57;;;0.90;;
21386;SDS011;10854;45.922;6.716;2022-10-16T03:32:40;4.60;;;1.43;;
21386;SDS011;10854;45.922;6.716;2022-10-16T03:35:09;2.53;;;1.10;;
21386;SDS011;10854;45.922;6.716;2022-10-16T03:37:37;3.63;;;1.20;;
21386;SDS011;10854;45.922;6.716;2022-10-16T03:40:06;2.17;;;1.40;;
21386;SDS011;10854;45.922;6.716;2022-10-16T03:42:35;5.77;;;1.20;;
21386;SDS011;10854;45.922;6.716;2022-10-16T03:45:04;1.63;;;1.00;;
21386;SDS011;10854;45.922;6.716;2022-10-16T03:47:33;4.47;;;1.27;;
21386;SDS011;10854;45.922;6.716;2022-10-16T03:50:02;3.10;;;1.10;;
21386;SDS011;10854;45.922;6.716;2022-10-16T03:52:31;1.63;;;1.10;;
21386;SDS011;10854;45.922;6.716;2022-10-16T03:55:00;1.90;;;0.90;;
21386;SDS011;10854;45.922;6.716;2022-10-16T03:57:29;2.60;;;1.10;;
21386;SDS011;10854;45.922;6.716;2022-10-16T03:59:59;1.80;;;1.10;;
21386;SDS011;10854;45.922;6.716;2022-10-16T04:02:29;1.50;;;0.80;;
21386;SDS011;10854;45.922;6.716;2022-10-16T04:04:58;2.17;;;0.97;;
21386;SDS011;10854;45.922;6.716;2022-10-16T04:07:26;2.30;;;1.10;;
21386;SDS011;10854;45.922;6.716;2022-10-16T04:09:56;1.30;;;1.00;;
21386;SDS011;10854;45.922;6.716;2022-10-16T04:12:28;1.73;;;0.70;;
21386;SDS011;10854;45.922;6.716;2022-10-16T04:14:57;1.43;;;0.60;;
21386;SDS011;10854;45.922;6.716;2022-10-16T04:17:26;0.80;;;0.80;;
21386;SDS011;10854;45.922;6.716;2022-10-16T04:19:54;2.20;;;0.70;;
21386;SDS011;10854;45.922;6.716;2022-10-16T04:22:23;0.80;;;0.80;;
21386;SDS011;10854;45.922;6.716;2022-10-16T04:24:56;1.47;;;0.60;;
21386;SDS011;10854;45.922;6.716;2022-10-16T04:27:25;1.57;;;1.10;;
21386;SDS011;10854;45.922;6.716;2022-10-16T04:29:53;6.77;;;1.20;;
21386;SDS011;10854;45.922;6.716;2022-10-16T04:32:22;2.67;;;0.80;;
21386;SDS011;10854;45.922;6.716;2022-10-16T04:34:50;3.53;;;0.80;;
21386;SDS011;10854;45.922;6.716;2022-10-16T04:37:19;1.37;;;0.80;;
21386;SDS011;10854;45.922;6.716;2022-10-16T04:39:52;2.10;;;0.87;;
21386;SDS011;10854;45.922;6.716;2022-10-16T04:42:21;2.90;;;1.00;;
21386;SDS011;10854;45.922;6.716;2022-10-16T04:44:49;2.83;;;1.07;;
21386;SDS011;10854;45.922;6.716;2022-10-16T04:47:18;2.40;;;1.00;;
21386;SDS011;10854;45.922;6.716;2022-10-16T04:49:46;1.17;;;1.00;;
21386;SDS011;10854;45.922;6.716;2022-10-16T04:52:15;2.97;;;0.80;;
21386;SDS011;10854;45.922;6.716;2022-10-16T04:54:45;2.10;;;1.00;;
21386;SDS011;10854;45.922;6.716;2022-10-16T04:57:14;3.87;;;1.30;;
21386;SDS011;10854;45.922;6.716;2022-10-16T04:59:42;2.40;;;1.10;;
21386;SDS011;10854;45.922;6.716;2022-10-16T05:02:11;0.83;;;0.73;;
21386;SDS011;10854;45.922;6.716;2022-10-16T05:04:40;1.80;;;0.97;;
21386;SDS011;10854;45.922;6.716;2022-10-16T05:07:09;1.50;;;1.10;;
21386;SDS011;10854;45.922;6.716;2022-10-16T05:09:37;1.80;;;1.10;;
21386;SDS011;10854;45.922;6.716;2022-10-16T05:12:06;1.77;;;1.00;;
21386;SDS011;10854;45.922;6.716;2022-10-16T05:14:34;0.60;;;0.60;;
21386;SDS011;10854;45.922;6.716;2022-10-16T05:17:03;1.20;;;0.60;;
21386;SDS011;10854;45.922;6.716;2022-10-16T05:19:32;1.73;;;0.60;;
21386;SDS011;10854;45.922;6.716;2022-10-16T05:22:00;2.50;;;1.00;;
21386;SDS011;10854;45.922;6.716;2022-10-16T05:24:29;0.97;;;0.80;;
21386;SDS011;10854;45.922;6.716;2022-10-16T05:26:57;1.60;;;0.80;;
21386;SDS011;10854;45.922;6.716;2022-10-16T05:29:25;1.20;;;0.70;;
21386;SDS011;10854;45.922;6.716;2022-10-16T05:31:54;1.97;;;0.80;;
21386;SDS011;10854;45.922;6.716;2022-10-16T05:34:23;2.10;;;1.10;;
21386;SDS011;10854;45.922;6.716;2022-10-16T05:36:51;2.40;;;0.90;;
21386;SDS011;10854;45.922;6.716;2022-10-16T05:39:19;3.53;;;1.20;;
21386;SDS011;10854;45.922;6.716;2022-10-16T05:41:49;2.90;;;1.10;;
21386;SDS011;10854;45.922;6.716;2022-10-16T05:44:18;3.10;;;1.00;;
21386;SDS011;10854;45.922;6.716;2022-10-16T05:46:46;3.07;;;1.10;;
21386;SDS011;10854;45.922;6.716;2022-10-16T05:49:15;1.30;;;1.00;;
21386;SDS011;10854;45.922;6.716;2022-10-16T05:51:44;3.67;;;1.07;;
21386;SDS011;10854;45.922;6.716;2022-10-16T05:54:12;1.03;;;0.93;;
21386;SDS011;10854;45.922;6.716;2022-10-16T05:56:41;2.40;;;1.30;;
21386;SDS011;10854;45.922;6.716;2022-10-16T05:59:09;5.17;;;1.20;;
21386;SDS011;10854;45.922;6.716;2022-10-16T06:01:38;4.53;;;1.20;;
21386;SDS011;10854;45.922;6.716;2022-10-16T06:04:08;3.07;;;1.27;;
21386;SDS011;10854;45.922;6.716;2022-10-16T06:06:42;1.30;;;0.90;;
21386;SDS011;10854;45.922;6.716;2022-10-16T06:09:10;4.17;;;0.90;;
21386;SDS011;10854;45.922;6.716;2022-10-16T06:11:39;1.87;;;1.17;;
21386;SDS011;10854;45.922;6.716;2022-10-16T06:14:08;1.20;;;0.70;;
21386;SDS011;10854;45.922;6.716;2022-10-16T06:16:38;0.60;;;0.60;;
21386;SDS011;10854;45.922;6.716;2022-10-16T06:19:08;2.27;;;0.77;;
21386;SDS011;10854;45.922;6.716;2022-10-16T06:21:36;0.50;;;0.50;;
21386;SDS011;10854;45.922;6.716;2022-10-16T06:24:05;1.90;;;0.80;;
21386;SDS011;10854;45.922;6.716;2022-10-16T06:26:34;2.80;;;1.10;;
21386;SDS011;10854;45.922;6.716;2022-10-16T06:29:03;1.43;;;0.90;;
21386;SDS011;10854;45.922;6.716;2022-10-16T06:31:31;1.23;;;0.90;;
21386;SDS011;10854;45.922;6.716;2022-10-16T06:34:01;4.07;;;1.20;;
21386;SDS011;10854;45.922;6.716;2022-10-16T06:36:30;2.27;;;1.17;;
21386;SDS011;10854;45.922;6.716;2022-10-16T06:38:59;3.03;;;1.00;;
21386;SDS011;10854;45.922;6.716;2022-10-16T06:41:27;1.23;;;1.10;;
21386;SDS011;10854;45.922;6.716;2022-10-16T06:43:56;3.40;;;1.30;;
21386;SDS011;10854;45.922;6.716;2022-10-16T06:46:25;3.13;;;1.13;;
21386;SDS011;10854;45.922;6.716;2022-10-16T06:48:54;3.23;;;1.00;;
21386;SDS011;10854;45.922;6.716;2022-10-16T06:51:23;1.33;;;0.87;;
21386;SDS011;10854;45.922;6.716;2022-10-16T06:53:53;1.50;;;0.90;;
21386;SDS011;10854;45.922;6.716;2022-10-16T06:56:28;2.43;;;1.17;;
21386;SDS011;10854;45.922;6.716;2022-10-16T06:58:58;3.50;;;1.33;;
21386;SDS011;10854;45.922;6.716;2022-10-16T07:01:27;3.23;;;1.40;;
21386;SDS011;10854;45.922;6.716;2022-10-16T07:03:56;1.43;;;1.30;;
21386;SDS011;10854;45.922;6.716;2022-10-16T07:06:25;1.80;;;1.20;;
21386;SDS011;10854;45.922;6.716;2022-10-16T07:08:55;3.13;;;1.10;;
21386;SDS011;10854;45.922;6.716;2022-10-16T07:11:23;2.47;;;1.20;;
21386;SDS011;10854;45.922;6.716;2022-10-16T07:13:52;0.90;;;0.90;;
21386;SDS011;10854;45.922;6.716;2022-10-16T07:16:23;4.10;;;1.20;;
21386;SDS011;10854;45.922;6.716;2022-10-16T07:18:57;1.53;;;1.07;;
21386;SDS011;10854;45.922;6.716;2022-10-16T07:21:29;1.80;;;1.10;;
21386;SDS011;10854;45.922;6.716;2022-10-16T07:24:03;3.07;;;1.07;;
21386;SDS011;10854;45.922;6.716;2022-10-16T07:26:38;1.17;;;0.90;;
21386;SDS011;10854;45.922;6.716;2022-10-16T07:29:12;2.93;;;1.07;;
21386;SDS011;10854;45.922;6.716;2022-10-16T07:31:43;4.33;;;1.33;;
21386;SDS011;10854;45.922;6.716;2022-10-16T07:34:12;2.73;;;1.30;;
21386;SDS011;10854;45.922;6.716;2022-10-16T07:36:43;1.87;;;1.20;;
21386;SDS011;10854;45.922;6.716;2022-10-16T07:39:11;2.20;;;1.07;;
21386;SDS011;10854;45.922;6.716;2022-10-16T07:41:42;2.03;;;1.10;;
21386;SDS011;10854;45.922;6.716;2022-10-16T07:44:11;3.13;;;1.17;;
21386;SDS011;10854;45.922;6.716;2022-10-16T07:46:40;3.00;;;1.13;;
21386;SDS011;10854;45.922;6.716;2022-10-16T07:49:11;6.27;;;1.20;;
21386;SDS011;10854;45.922;6.716;2022-10-16T07:51:40;6.10;;;1.10;;
21386;SDS011;10854;45.922;6.716;2022-10-16T07:54:10;3.37;;;1.07;;
21386;SDS011;10854;45.922;6.716;2022-10-16T07:56:38;2.60;;;0.90;;
21386;SDS011;10854;45.922;6.716;2022-10-16T07:59:08;1.53;;;1.10;;
21386;SDS011;10854;45.922;6.716;2022-10-16T08:01:39;2.50;;;1.00;;
21386;SDS011;10854;45.922;6.716;2022-10-16T08:04:09;1.70;;;1.07;;
21386;SDS011;10854;45.922;6.716;2022-10-16T08:06:38;3.30;;;1.00;;
21386;SDS011;10854;45.922;6.716;2022-10-16T08:09:08;1.07;;;0.90;;
21386;SDS011;10854;45.922;6.716;2022-10-16T08:11:37;3.30;;;1.20;;
21386;SDS011;10854;45.922;6.716;2022-10-16T08:14:05;3.30;;;1.30;;
21386;SDS011;10854;45.922;6.716;2022-10-16T08:16:34;1.40;;;0.97;;
21386;SDS011;10854;45.922;6.716;2022-10-16T08:19:02;2.90;;;2.03;;
21386;SDS011;10854;45.922;6.716;2022-10-16T08:21:31;2.73;;;1.73;;
21386;SDS011;10854;45.922;6.716;2022-10-16T08:23:59;2.80;;;1.40;;
21386;SDS011;10854;45.922;6.716;2022-10-16T08:26:29;1.17;;;1.00;;
21386;SDS011;10854;45.922;6.716;2022-10-16T08:28:57;2.97;;;1.20;;
21386;SDS011;10854;45.922;6.716;2022-10-16T08:31:26;2.03;;;1.00;;
21386;SDS011;10854;45.922;6.716;2022-10-16T08:33:54;2.17;;;1.20;;
21386;SDS011;10854;45.922;6.716;2022-10-16T08:36:24;1.50;;;1.17;;
21386;SDS011;10854;45.922;6.716;2022-10-16T08:38:53;1.73;;;1.00;;
21386;SDS011;10854;45.922;6.716;2022-10-16T08:49:55;3.50;;;0.97;;
21386;SDS011;10854;45.922;6.716;2022-10-16T08:52:25;2.05;;;0.90;;
21386;SDS011;10854;45.922;6.716;2022-10-16T08:54:59;2.72;;;0.75;;
21386;SDS011;10854;45.922;6.716;2022-10-16T08:57:28;0.80;;;0.80;;
21386;SDS011;10854;45.922;6.716;2022-10-16T09:00:00;2.22;;;0.80;;
21386;SDS011;10854;45.922;6.716;2022-10-16T09:02:49;2.58;;;0.70;;
21386;SDS011;10854;45.922;6.716;2022-10-16T09:05:38;0.70;;;0.70;;
21386;SDS011;10854;45.922;6.716;2022-10-16T09:12:17;1.85;;;0.80;;
21386;SDS011;10854;45.922;6.716;2022-10-16T09:17:17;0.65;;;0.65;;
21386;SDS011;10854;45.922;6.716;2022-10-16T09:23:21;1.58;;;1.00;;
21386;SDS011;10854;45.922;6.716;2022-10-16T09:25:49;1.17;;;0.80;;
21386;SDS011;10854;45.922;6.716;2022-10-16T09:28:43;2.80;;;0.80;;
21386;SDS011;10854;45.922;6.716;2022-10-16T09:31:16;1.42;;;0.80;;
21386;SDS011;10854;45.922;6.716;2022-10-16T09:33:55;0.60;;;0.60;;
21386;SDS011;10854;45.922;6.716;2022-10-16T09:36:36;0.70;;;0.70;;
21386;SDS011;10854;45.922;6.716;2022-10-16T09:39:10;1.42;;;0.75;;
21386;SDS011;10854;45.922;6.716;2022-10-16T09:41:42;1.15;;;0.77;;
21386;SDS011;10854;45.922;6.716;2022-10-16T09:44:23;1.38;;;0.60;;
21386;SDS011;10854;45.922;6.716;2022-10-16T09:47:04;0.70;;;0.60;;
21386;SDS011;10854;45.922;6.716;2022-10-16T09:49:34;1.13;;;0.70;;
21386;SDS011;10854;45.922;6.716;2022-10-16T09:52:15;2.45;;;0.68;;
21386;SDS011;10854;45.922;6.716;2022-10-16T09:54:51;2.70;;;1.65;;
21386;SDS011;10854;45.922;6.716;2022-10-16T09:57:28;1.23;;;0.60;;
21386;SDS011;10854;45.922;6.716;2022-10-16T09:59:58;0.85;;;0.60;;
21386;SDS011;10854;45.922;6.716;2022-10-16T10:02:36;0.93;;;0.90;;
21386;SDS011;10854;45.922;6.716;2022-10-16T10:05:16;1.23;;;0.90;;
21386;SDS011;10854;45.922;6.716;2022-10-16T10:07:56;1.88;;;0.85;;
21386;SDS011;10854;45.922;6.716;2022-10-16T10:10:34;1.88;;;0.93;;
21386;SDS011;10854;45.922;6.716;2022-10-16T10:13:21;1.38;;;0.80;;
21386;SDS011;10854;45.922;6.716;2022-10-16T10:15:52;1.10;;;0.85;;
21386;SDS011;10854;45.922;6.716;2022-10-16T10:18:22;3.42;;;0.93;;
21386;SDS011;10854;45.922;6.716;2022-10-16T10:20:58;1.88;;;0.88;;
21386;SDS011;10854;45.922;6.716;2022-10-16T10:23:28;1.65;;;0.80;;
21386;SDS011;10854;45.922;6.716;2022-10-16T10:26:09;2.60;;;0.80;;
21386;SDS011;10854;45.922;6.716;2022-10-16T10:28:46;1.70;;;0.70;;
21386;SDS011;10854;45.922;6.716;2022-10-16T10:34:34;1.48;;;0.80;;
21386;SDS011;10854;45.922;6.716;2022-10-16T10:40:24;3.28;;;1.00;;
21386;SDS011;10854;45.922;6.716;2022-10-16T10:43:10;0.90;;;0.80;;
21386;SDS011;10854;45.922;6.716;2022-10-16T10:45:52;0.80;;;0.80;;
21386;SDS011;10854;45.922;6.716;2022-10-16T10:48:41;1.67;;;0.75;;
21386;SDS011;10854;45.922;6.716;2022-10-16T10:51:43;1.42;;;0.70;;
21386;SDS011;10854;45.922;6.716;2022-10-16T11:00:30;1.27;;;1.00;;
21386;SDS011;10854;45.922;6.716;2022-10-16T11:03:14;1.58;;;0.90;;
21386;SDS011;10854;45.922;6.716;2022-10-16T11:06:07;1.52;;;0.90;;
21386;SDS011;10854;45.922;6.716;2022-10-16T11:11:13;2.45;;;0.93;;
21386;SDS011;10854;45.922;6.716;2022-10-16T11:16:49;1.17;;;0.80;;
21386;SDS011;10854;45.922;6.716;2022-10-16T11:19:28;2.47;;;2.28;;
21386;SDS011;10854;45.922;6.716;2022-10-16T11:22:30;3.15;;;1.30;;
21386;SDS011;10854;45.922;6.716;2022-10-16T11:25:22;1.60;;;0.85;;
21386;SDS011;10854;45.922;6.716;2022-10-16T11:31:10;0.80;;;0.80;;
21386;SDS011;10854;45.922;6.716;2022-10-16T11:33:44;1.90;;;0.90;;
21386;SDS011;10854;45.922;6.716;2022-10-16T11:39:03;1.73;;;1.00;;
21386;SDS011;10854;45.922;6.716;2022-10-16T11:41:51;1.40;;;0.90;;
21386;SDS011;10854;45.922;6.716;2022-10-16T11:50:29;1.30;;;1.00;;
21386;SDS011;10854;45.922;6.716;2022-10-16T11:53:04;1.52;;;1.00;;
21386;SDS011;10854;45.922;6.716;2022-10-16T11:56:15;3.60;;;1.20;;
21386;SDS011;10854;45.922;6.716;2022-10-16T12:01:48;2.92;;;0.85;;
21386;SDS011;10854;45.922;6.716;2022-10-16T12:04:36;1.20;;;0.90;;
21386;SDS011;10854;45.922;6.716;2022-10-16T12:07:17;1.00;;;0.90;;
21386;SDS011;10854;45.922;6.716;2022-10-16T12:09:50;1.00;;;0.90;;
21386;SDS011;10854;45.922;6.716;2022-10-16T12:12:25;0.95;;;0.90;;
21386;SDS011;10854;45.922;6.716;2022-10-16T12:15:24;1.00;;;1.00;;
21386;SDS011;10854;45.922;6.716;2022-10-16T12:18:20;1.17;;;0.80;;
21386;SDS011;10854;45.922;6.716;2022-10-16T12:20:55;1.00;;;0.90;;
21386;SDS011;10854;45.922;6.716;2022-10-16T12:23:46;1.77;;;1.00;;
21386;SDS011;10854;45.922;6.716;2022-10-16T12:26:51;1.50;;;0.98;;
21386;SDS011;10854;45.922;6.716;2022-10-16T12:29:26;1.23;;;1.10;;
21386;SDS011;10854;45.922;6.716;2022-10-16T12:32:52;2.30;;;1.30;;
21386;SDS011;10854;45.922;6.716;2022-10-16T12:35:18;4.30;;;1.00;;
21386;SDS011;10854;45.922;6.716;2022-10-16T12:37:50;0.75;;;0.75;;
21386;SDS011;10854;45.922;6.716;2022-10-16T12:42:56;0.98;;;0.90;;
21386;SDS011;10854;45.922;6.716;2022-10-16T12:45:27;2.10;;;0.90;;
21386;SDS011;10854;45.922;6.716;2022-10-16T12:48:00;0.90;;;0.90;;
21386;SDS011;10854;45.922;6.716;2022-10-16T12:50:31;2.97;;;1.00;;
21386;SDS011;10854;45.922;6.716;2022-10-16T12:53:03;1.85;;;1.10;;
21386;SDS011;10854;45.922;6.716;2022-10-16T12:55:49;0.95;;;0.80;;
21386;SDS011;10854;45.922;6.716;2022-10-16T13:01:20;1.42;;;0.70;;
21386;SDS011;10854;45.922;6.716;2022-10-16T13:04:22;1.02;;;0.90;;
21386;SDS011;10854;45.922;6.716;2022-10-16T13:07:20;0.93;;;0.90;;
21386;SDS011;10854;45.922;6.716;2022-10-16T13:10:00;1.10;;;1.00;;
21386;SDS011;10854;45.922;6.716;2022-10-16T13:12:46;2.25;;;1.05;;
21386;SDS011;10854;45.922;6.716;2022-10-16T13:21:29;0.85;;;0.70;;
21386;SDS011;10854;45.922;6.716;2022-10-16T13:29:52;0.88;;;0.88;;
21386;SDS011;10854;45.922;6.716;2022-10-16T13:32:27;1.50;;;0.75;;
21386;SDS011;10854;45.922;6.716;2022-10-16T13:34:57;2.65;;;0.80;;
21386;SDS011;10854;45.922;6.716;2022-10-16T13:37:27;1.13;;;1.02;;
21386;SDS011;10854;45.922;6.716;2022-10-16T13:42:54;1.17;;;0.80;;
21386;SDS011;10854;45.922;6.716;2022-10-16T13:45:23;1.83;;;0.95;;
21386;SDS011;10854;45.922;6.716;2022-10-16T13:48:04;2.60;;;0.98;;
21386;SDS011;10854;45.922;6.716;2022-10-16T13:50:33;2.13;;;0.90;;
21386;SDS011;10854;45.922;6.716;2022-10-16T13:53:06;4.05;;;0.90;;
21386;SDS011;10854;45.922;6.716;2022-10-16T13:55:36;1.83;;;0.93;;
21386;SDS011;10854;45.922;6.716;2022-10-16T13:58:05;1.30;;;0.90;;
21386;SDS011;10854;45.922;6.716;2022-10-16T14:00:52;1.90;;;1.08;;
21386;SDS011;10854;45.922;6.716;2022-10-16T14:03:42;2.47;;;1.17;;
21386;SDS011;10854;45.922;6.716;2022-10-16T14:06:16;1.10;;;0.90;;
21386;SDS011;10854;45.922;6.716;2022-10-16T14:08:51;1.63;;;1.00;;
21386;SDS011;10854;45.922;6.716;2022-10-16T14:11:30;1.00;;;1.00;;
21386;SDS011;10854;45.922;6.716;2022-10-16T14:13:59;1.35;;;0.93;;
21386;SDS011;10854;45.922;6.716;2022-10-16T14:16:31;1.20;;;1.10;;
21386;SDS011;10854;45.922;6.716;2022-10-16T14:19:03;1.38;;;0.98;;
21386;SDS011;10854;45.922;6.716;2022-10-16T14:21:40;1.67;;;0.90;;
21386;SDS011;10854;45.922;6.716;2022-10-16T14:24:13;1.20;;;0.90;;
21386;SDS011;10854;45.922;6.716;2022-10-16T14:26:52;1.10;;;0.85;;
21386;SDS011;10854;45.922;6.716;2022-10-16T14:29:24;2.50;;;1.00;;
21386;SDS011;10854;45.922;6.716;2022-10-16T14:31:55;0.95;;;0.88;;
21386;SDS011;10854;45.922;6.716;2022-10-16T14:34:30;1.30;;;1.10;;
21386;SDS011;10854;45.922;6.716;2022-10-16T14:37:01;1.95;;;1.00;;
21386;SDS011;10854;45.922;6.716;2022-10-16T14:39:35;2.22;;;0.93;;
21386;SDS011;10854;45.922;6.716;2022-10-16T14:42:04;1.30;;;1.00;;
21386;SDS011;10854;45.922;6.716;2022-10-16T14:44:32;1.20;;;1.05;;
21386;SDS011;10854;45.922;6.716;2022-10-16T14:47:08;1.20;;;1.00;;
21386;SDS011;10854;45.922;6.716;2022-10-16T14:49:41;3.22;;;1.10;;
21386;SDS011;10854;45.922;6.716;2022-10-16T14:52:11;1.15;;;1.05;;
21386;SDS011;10854;45.922;6.716;2022-10-16T14:54:40;1.70;;;0.98;;
21386;SDS011;10854;45.922;6.716;2022-10-16T14:57:18;1.63;;;1.00;;
21386;SDS011;10854;45.922;6.716;2022-10-16T14:59:52;1.67;;;1.30;;
21386;SDS011;10854;45.922;6.716;2022-10-16T15:04:57;3.03;;;1.42;;
21386;SDS011;10854;45.922;6.716;2022-10-16T15:07:29;2.83;;;1.23;;
21386;SDS011;10854;45.922;6.716;2022-10-16T15:09:58;2.47;;;1.17;;
21386;SDS011;10854;45.922;6.716;2022-10-16T15:12:28;1.45;;;1.17;;
21386;SDS011;10854;45.922;6.716;2022-10-16T15:14:56;1.10;;;1.00;;
21386;SDS011;10854;45.922;6.716;2022-10-16T15:17:25;3.28;;;1.08;;
21386;SDS011;10854;45.922;6.716;2022-10-16T15:19:54;1.50;;;1.17;;
21386;SDS011;10854;45.922;6.716;2022-10-16T15:22:23;1.92;;;1.17;;
21386;SDS011;10854;45.922;6.716;2022-10-16T15:24:51;1.15;;;1.02;;
21386;SDS011;10854;45.922;6.716;2022-10-16T15:27:21;3.40;;;1.10;;
21386;SDS011;10854;45.922;6.716;2022-10-16T15:29:49;2.20;;;1.10;;
21386;SDS011;10854;45.922;6.716;2022-10-16T15:32:18;3.22;;;1.25;;
21386;SDS011;10854;45.922;6.716;2022-10-16T15:34:46;1.67;;;1.40;;
21386;SDS011;10854;45.922;6.716;2022-10-16T15:37:14;1.63;;;1.27;;
21386;SDS011;10854;45.922;6.716;2022-10-16T15:39:43;2.35;;;1.45;;
21386;SDS011;10854;45.922;6.716;2022-10-16T15:42:13;3.25;;;1.23;;
21386;SDS011;10854;45.922;6.716;2022-10-16T15:44:41;5.38;;;1.10;;
21386;SDS011;10854;45.922;6.716;2022-10-16T15:47:10;1.33;;;1.05;;
21386;SDS011;10854;45.922;6.716;2022-10-16T15:49:38;2.60;;;1.30;;
21386;SDS011;10854;45.922;6.716;2022-10-16T15:52:08;3.30;;;1.35;;
21386;SDS011;10854;45.922;6.716;2022-10-16T15:54:36;3.40;;;1.25;;
21386;SDS011;10854;45.922;6.716;2022-10-16T15:57:05;2.15;;;1.40;;
21386;SDS011;10854;45.922;6.716;2022-10-16T15:59:34;1.73;;;1.40;;
21386;SDS011;10854;45.922;6.716;2022-10-16T16:02:03;4.75;;;1.70;;
21386;SDS011;10854;45.922;6.716;2022-10-16T16:04:32;1.80;;;1.30;;
21386;SDS011;10854;45.922;6.716;2022-10-16T16:07:17;1.50;;;1.38;;
21386;SDS011;10854;45.922;6.716;2022-10-16T16:09:45;1.63;;;1.40;;
21386;SDS011;10854;45.922;6.716;2022-10-16T16:12:15;2.70;;;1.60;;
21386;SDS011;10854;45.922;6.716;2022-10-16T16:14:43;2.42;;;1.63;;
21386;SDS011;10854;45.922;6.716;2022-10-16T16:17:13;2.95;;;1.30;;
21386;SDS011;10854;45.922;6.716;2022-10-16T16:19:42;3.35;;;1.45;;
21386;SDS011;10854;45.922;6.716;2022-10-16T16:22:13;1.92;;;1.50;;
21386;SDS011;10854;45.922;6.716;2022-10-16T16:24:41;1.75;;;1.40;;
21386;SDS011;10854;45.922;6.716;2022-10-16T16:27:10;3.55;;;1.50;;
21386;SDS011;10854;45.922;6.716;2022-10-16T16:29:38;1.83;;;1.48;;
21386;SDS011;10854;45.922;6.716;2022-10-16T16:32:07;4.15;;;1.60;;
21386;SDS011;10854;45.922;6.716;2022-10-16T16:34:36;4.97;;;1.67;;
21386;SDS011;10854;45.922;6.716;2022-10-16T16:37:04;3.30;;;1.60;;
21386;SDS011;10854;45.922;6.716;2022-10-16T16:39:33;4.07;;;1.40;;
21386;SDS011;10854;45.922;6.716;2022-10-16T16:42:02;4.20;;;1.60;;
21386;SDS011;10854;45.922;6.716;2022-10-16T16:44:31;4.90;;;2.40;;
21386;SDS011;10854;45.922;6.716;2022-10-16T16:47:00;4.67;;;1.70;;
21386;SDS011;10854;45.922;6.716;2022-10-16T16:49:28;4.53;;;2.30;;
21386;SDS011;10854;45.922;6.716;2022-10-16T16:51:57;6.20;;;2.20;;
21386;SDS011;10854;45.922;6.716;2022-10-16T16:54:25;4.67;;;2.10;;
21386;SDS011;10854;45.922;6.716;2022-10-16T16:56:54;4.50;;;2.03;;